Skip Navigation LinksHome page > Weather > Current weather Skip Navigation Links

Current Weather

Central Park, New York

For information only: do not use for flight planning or navigation.
Latest weather
Observation time Monday, September 26, 2016 9:51 AM EDT
Local time Monday, September 26, 2016 10:01 AM EDT
Flight conditions Marginal Visual Meteorological Conditions
Winds
Wind direction variable
Wind speed 5 mph
Visibility 10 mi.
Sky condition
Ceiling 1,700 ft. overcast
Cloud layer scattered clouds 600 ft.
Cloud layer overcast 1,700 ft.
Sky clear
Temperature 63°F
Dewpoint 44°F
Altimeter 30.22 in.Hg
Derived measurements
Relative humidity 50%
Density altitude 219 ft.
Sea-level pressure 30.19 in.Hg
Remarks
Special weather observation.
Fully automated report.
Automated weather observing station with precipitation discriminator.
METAR KNYC 261351Z AUTO VRB04KT 10SM CLR 17/07 A3022 RMK AO2 SLP225 T01720067 SPUS99 KWBC 261353 SPECI KCOT 261350Z AUTO 05005KT 9SM SCT006 OVC017 24/22 A3005 RMK AO2

Settings

Location code

InnerDrive.Weather 4.0.5722.1 Release CLR 4.0.30319.34209
Copyright ©2015 Inner Drive Technology. All rights reserved. Portions Copyright ©1986-2015 David Braverman.

Find weather

Site navigation


Skip Navigation Links

Place info

Page info

PayPal - The safer, easier way to pay online!

Return home.

Copyright ©2016 Inner Drive Technology. Purveyors of fine, hand-crafted computer software. Page printed 2016-09-26T14:01:37 UTC.